Time;durP1;ratioP1;P1;durP2;ratioP2;P2;SDS_P1;SDS_P2;PMS_P1;PMS_P2;Temp;Humidity;BMP_temperature;BMP_pressure;BME280_temperature;BME280_humidity;BME280_pressure;Samples;Min_cycle;Max_cycle;Signal;HPM_P1;HPM_P2
2022/07/19 00:01:19;;;;;;;;;;;24.70;85.90;;;;;;5074135;28;20080;-69
2022/07/19 00:03:45;;;;;;;;;;;24.70;85.90;;;;;;5074124;28;20282;-68
2022/07/19 00:06:10;;;;;;;;;;;24.70;85.80;;;;;;5074188;28;20439;-69
2022/07/19 00:08:36;;;;;;;;;;;24.70;85.90;;;;;;5074150;28;20371;-68
2022/07/19 00:11:01;;;;;;;;;;;24.70;85.90;;;;;;5056398;28;19916;-68
2022/07/19 00:13:27;;;;;;;;;;;24.70;85.90;;;;;;5074043;28;20390;-69
2022/07/19 00:15:53;;;;;;;;;;;24.70;85.90;;;;;;5074582;28;19909;-68
2022/07/19 00:18:18;;;;;;;;;;;24.70;85.90;;;;;;5074371;28;20017;-68
2022/07/19 00:20:44;;;;;;;;;;;24.70;85.90;;;;;;5073901;28;19909;-69
2022/07/19 00:23:09;;;;;;;;;;;24.60;85.90;;;;;;5073957;28;20318;-69
2022/07/19 00:25:35;;;;;;;;;;;24.70;86.50;;;;;;5073943;28;19908;-69
2022/07/19 00:28:00;;;;;;;;;;;24.60;85.90;;;;;;5074258;28;19955;-68
2022/07/19 00:30:26;;;;;;;;;;;24.60;85.90;;;;;;5074125;28;19962;-69
2022/07/19 00:32:51;;;;;;;;;;;24.60;85.90;;;;;;5073977;28;19966;-69
2022/07/19 00:35:17;;;;;;;;;;;24.60;85.90;;;;;;5074170;28;20007;-69
2022/07/19 00:37:43;;;;;;;;;;;24.60;85.90;;;;;;5056154;28;19915;-69
2022/07/19 00:40:09;;;;;;;;;;;24.60;85.90;;;;;;5074407;28;19910;-70
2022/07/19 00:42:34;;;;;;;;;;;24.60;85.90;;;;;;5073732;28;19915;-68
2022/07/19 00:45:00;;;;;;;;;;;24.60;85.90;;;;;;5056072;28;19915;-69
2022/07/19 00:47:25;;;;;;;;;;;24.60;85.80;;;;;;5073663;28;19999;-68
2022/07/19 00:49:51;;;;;;;;;;;24.60;85.90;;;;;;5056402;28;20283;-69
2022/07/19 00:52:18;;;;;;;;;;;24.60;85.90;;;;;;5055941;28;19912;-68
2022/07/19 00:54:44;;;;;;;;;;;24.60;85.90;;;;;;5073670;28;19919;-69
2022/07/19 00:57:10;;;;;;;;;;;24.60;85.90;;;;;;5055968;28;19908;-69
2022/07/19 00:59:36;;;;;;;;;;;24.60;85.90;;;;;;5073895;28;19921;-68
2022/07/19 01:02:01;;;;;;;;;;;24.60;85.90;;;;;;5073972;28;19919;-68
2022/07/19 01:04:27;;;;;;;;;;;24.60;85.90;;;;;;5073832;28;20420;-69
2022/07/19 01:06:53;;;;;;;;;;;24.60;85.80;;;;;;5055884;28;19908;-69
2022/07/19 01:09:18;;;;;;;;;;;24.60;85.90;;;;;;5073516;28;19988;-69
2022/07/19 01:11:44;;;;;;;;;;;24.60;85.90;;;;;;5073674;28;19958;-68
2022/07/19 01:14:09;;;;;;;;;;;24.60;85.90;;;;;;5073444;28;19966;-68
2022/07/19 01:16:35;;;;;;;;;;;24.60;85.90;;;;;;5073786;28;20343;-68
2022/07/19 01:19:00;;;;;;;;;;;24.60;85.90;;;;;;5055460;28;20333;-69
2022/07/19 01:21:30;;;;;;;;;;;24.60;85.90;;;;;;5055619;28;19908;-68
2022/07/19 01:23:56;;;;;;;;;;;24.60;85.90;;;;;;5055612;28;19991;-68
2022/07/19 01:26:21;;;;;;;;;;;24.60;85.80;;;;;;5076954;28;20430;-69
2022/07/19 01:28:47;;;;;;;;;;;24.60;85.80;;;;;;5077414;28;19917;-69
2022/07/19 01:31:12;;;;;;;;;;;24.60;85.80;;;;;;5077297;28;19913;-68
2022/07/19 01:33:39;;;;;;;;;;;24.60;85.80;;;;;;5077298;28;19957;-68
2022/07/19 01:36:04;;;;;;;;;;;24.60;85.70;;;;;;5077140;28;19908;-68
2022/07/19 01:38:30;;;;;;;;;;;24.60;85.70;;;;;;5077394;28;19909;-69
2022/07/19 01:40:57;;;;;;;;;;;24.60;85.70;;;;;;5076913;28;19909;-69
2022/07/19 01:43:22;;;;;;;;;;;24.60;85.70;;;;;;5077153;28;20011;-69
2022/07/19 01:45:48;;;;;;;;;;;24.60;85.60;;;;;;5076821;28;20411;-69
2022/07/19 01:48:13;;;;;;;;;;;24.60;85.60;;;;;;5076980;28;19915;-69
2022/07/19 01:50:39;;;;;;;;;;;24.60;85.70;;;;;;5076885;28;19913;-69
2022/07/19 01:53:04;;;;;;;;;;;24.60;85.70;;;;;;5076966;28;19913;-68
2022/07/19 01:55:30;;;;;;;;;;;24.60;85.70;;;;;;5076863;28;19930;-69
2022/07/19 01:57:55;;;;;;;;;;;24.60;85.70;;;;;;5058988;28;19920;-69
2022/07/19 02:00:21;;;;;;;;;;;24.60;85.70;;;;;;5076926;28;19921;-69
2022/07/19 02:02:46;;;;;;;;;;;24.60;85.70;;;;;;5058849;28;19908;-69
2022/07/19 02:05:12;;;;;;;;;;;24.60;85.60;;;;;;5077181;28;19920;-68
2022/07/19 02:07:38;;;;;;;;;;;24.60;85.70;;;;;;5076666;28;19999;-68
2022/07/19 02:10:04;;;;;;;;;;;24.60;85.70;;;;;;5058771;28;19916;-68
2022/07/19 02:12:30;;;;;;;;;;;24.60;85.60;;;;;;5058511;28;19970;-69
2022/07/19 02:14:56;;;;;;;;;;;24.60;85.60;;;;;;5076574;28;19916;-69
2022/07/19 02:17:21;;;;;;;;;;;24.60;85.60;;;;;;5058583;28;19913;-69
2022/07/19 02:19:47;;;;;;;;;;;24.60;85.60;;;;;;5076178;28;19913;-68
2022/07/19 02:22:13;;;;;;;;;;;24.60;85.60;;;;;;5076531;28;20373;-68
2022/07/19 02:24:39;;;;;;;;;;;24.60;85.60;;;;;;5076116;28;20362;-68
2022/07/19 02:27:04;;;;;;;;;;;24.60;85.60;;;;;;5076099;28;19931;-68
2022/07/19 02:29:30;;;;;;;;;;;24.50;85.50;;;;;;5076012;28;20411;-69
2022/07/19 02:31:55;;;;;;;;;;;24.60;85.60;;;;;;5058248;28;20022;-69
2022/07/19 02:34:21;;;;;;;;;;;24.60;85.60;;;;;;5076151;28;20271;-68
2022/07/19 02:36:46;;;;;;;;;;;24.60;85.60;;;;;;5057032;28;19912;-69
2022/07/19 02:39:12;;;;;;;;;;;24.60;85.60;;;;;;5075798;28;19920;-68
2022/07/19 02:41:37;;;;;;;;;;;24.60;85.60;;;;;;5075769;28;19915;-68
2022/07/19 02:44:03;;;;;;;;;;;24.60;85.60;;;;;;5058154;28;19909;-68
2022/07/19 02:46:28;;;;;;;;;;;24.50;85.50;;;;;;5075751;28;20323;-69
2022/07/19 02:48:54;;;;;;;;;;;24.50;85.50;;;;;;5075964;28;20373;-69
2022/07/19 02:51:19;;;;;;;;;;;24.50;85.50;;;;;;5075780;28;19912;-69
2022/07/19 02:53:44;;;;;;;;;;;24.60;85.60;;;;;;5075561;28;19912;-69
2022/07/19 02:56:10;;;;;;;;;;;24.60;85.50;;;;;;5076154;28;19914;-68
2022/07/19 02:58:35;;;;;;;;;;;24.60;85.50;;;;;;5075720;28;20362;-68
2022/07/19 03:01:01;;;;;;;;;;;24.60;85.50;;;;;;5075563;28;20371;-69
2022/07/19 03:03:46;;;;;;;;;;;24.60;85.50;;;;;;5075405;28;20003;-68
2022/07/19 03:06:13;;;;;;;;;;;24.50;85.50;;;;;;5057665;28;20015;-69
2022/07/19 03:08:38;;;;;;;;;;;24.50;85.50;;;;;;5057578;28;20370;-68
2022/07/19 03:11:04;;;;;;;;;;;24.50;85.50;;;;;;5075455;28;19913;-68
2022/07/19 03:13:29;;;;;;;;;;;24.50;85.50;;;;;;5074981;28;20367;-69
2022/07/19 03:15:55;;;;;;;;;;;24.50;85.50;;;;;;5075324;28;19908;-69
2022/07/19 03:18:20;;;;;;;;;;;24.50;85.50;;;;;;5075087;28;20275;-68
2022/07/19 03:20:46;;;;;;;;;;;24.50;85.40;;;;;;5075221;28;19909;-68
2022/07/19 03:23:11;;;;;;;;;;;24.50;85.40;;;;;;5075517;28;19913;-68
2022/07/19 03:25:37;;;;;;;;;;;24.50;85.50;;;;;;5075162;28;19940;-68
2022/07/19 03:28:03;;;;;;;;;;;24.50;85.50;;;;;;5074800;28;19915;-69
2022/07/19 03:30:28;;;;;;;;;;;24.50;85.40;;;;;;5075055;28;19915;-69
2022/07/19 03:32:54;;;;;;;;;;;24.50;85.50;;;;;;5074610;28;19913;-69
2022/07/19 03:35:19;;;;;;;;;;;24.50;85.50;;;;;;5074966;28;20378;-69
2022/07/19 03:37:45;;;;;;;;;;;24.50;85.50;;;;;;5074759;28;20338;-68
2022/07/19 03:40:11;;;;;;;;;;;24.50;85.50;;;;;;5074818;28;19909;-68
2022/07/19 03:42:37;;;;;;;;;;;24.50;85.50;;;;;;5074686;28;20015;-68
2022/07/19 03:45:02;;;;;;;;;;;24.50;85.50;;;;;;5074720;28;19908;-69
2022/07/19 03:47:28;;;;;;;;;;;24.50;85.50;;;;;;5074317;28;19909;-69
2022/07/19 03:49:53;;;;;;;;;;;24.50;85.50;;;;;;5074632;28;19983;-68
2022/07/19 03:52:19;;;;;;;;;;;24.50;85.40;;;;;;5074416;28;19919;-69
2022/07/19 03:54:44;;;;;;;;;;;24.50;85.40;;;;;;5056544;28;19912;-69
2022/07/19 03:57:10;;;;;;;;;;;24.50;85.40;;;;;;5074409;28;19912;-69
2022/07/19 03:59:35;;;;;;;;;;;24.50;85.40;;;;;;5074493;28;19921;-67
2022/07/19 04:02:01;;;;;;;;;;;24.50;85.30;;;;;;5074161;28;19909;-69
2022/07/19 04:04:26;;;;;;;;;;;24.60;85.40;;;;;;5074301;28;19908;-69
2022/07/19 04:06:52;;;;;;;;;;;24.60;85.40;;;;;;5056412;28;19919;-69
2022/07/19 04:09:17;;;;;;;;;;;24.60;85.40;;;;;;5074427;28;19908;-69
2022/07/19 04:11:42;;;;;;;;;;;24.60;85.40;;;;;;5056344;28;19965;-69
2022/07/19 04:14:08;;;;;;;;;;;24.60;85.40;;;;;;5073957;28;19970;-68
2022/07/19 04:16:33;;;;;;;;;;;24.60;85.40;;;;;;5073956;28;19908;-69
2022/07/19 04:18:59;;;;;;;;;;;24.60;85.40;;;;;;5074191;28;20363;-68
2022/07/19 04:21:24;;;;;;;;;;;24.60;85.40;;;;;;5056163;28;19909;-69
2022/07/19 04:23:50;;;;;;;;;;;24.60;85.50;;;;;;5073756;28;19912;-69
2022/07/19 04:26:15;;;;;;;;;;;24.60;85.50;;;;;;5056159;28;20270;-69
2022/07/19 04:28:41;;;;;;;;;;;24.60;85.40;;;;;;5073977;28;19920;-68
2022/07/19 04:31:06;;;;;;;;;;;24.60;85.50;;;;;;5073540;28;19912;-68
2022/07/19 04:33:32;;;;;;;;;;;24.60;85.40;;;;;;5073933;28;20376;-69
2022/07/19 04:35:57;;;;;;;;;;;24.60;85.40;;;;;;5073945;28;19908;-69
2022/07/19 04:38:23;;;;;;;;;;;24.60;85.30;;;;;;5074247;28;19908;-69
2022/07/19 04:40:48;;;;;;;;;;;24.60;85.30;;;;;;5073628;28;19909;-69
2022/07/19 04:43:15;;;;;;;;;;;24.70;85.30;;;;;;5055861;28;19931;-69
2022/07/19 04:45:41;;;;;;;;;;;24.70;85.30;;;;;;5073765;28;19909;-69
2022/07/19 04:48:07;;;;;;;;;;;24.70;85.20;;;;;;5074099;28;19908;-69
2022/07/19 04:50:33;;;;;;;;;;;24.70;85.20;;;;;;5073758;28;19931;-69
2022/07/19 04:52:58;;;;;;;;;;;24.70;85.10;;;;;;5073282;28;19992;-69
2022/07/19 04:55:24;;;;;;;;;;;24.70;85.10;;;;;;5055770;28;20378;-69
2022/07/19 04:57:49;;;;;;;;;;;24.70;85.00;;;;;;5073380;28;19909;-69
2022/07/19 05:00:15;;;;;;;;;;;24.70;84.90;;;;;;5075400;28;19927;-69
2022/07/19 05:02:40;;;;;;;;;;;24.70;85.00;;;;;;5077685;28;19966;-69
2022/07/19 05:05:06;;;;;;;;;;;24.80;84.70;;;;;;5077518;28;20254;-69
2022/07/19 05:07:31;;;;;;;;;;;24.70;84.90;;;;;;5059695;28;19912;-69
2022/07/19 05:09:57;;;;;;;;;;;24.80;85.20;;;;;;5077250;28;19908;-69
2022/07/19 05:12:22;;;;;;;;;;;24.70;84.70;;;;;;5077074;28;19919;-69
2022/07/19 05:14:48;;;;;;;;;;;24.80;84.70;;;;;;5077374;28;19958;-69
2022/07/19 05:17:14;;;;;;;;;;;24.70;84.90;;;;;;5076928;28;19909;-68
2022/07/19 05:19:40;;;;;;;;;;;24.70;84.80;;;;;;5077363;28;19908;-68
2022/07/19 05:22:05;;;;;;;;;;;24.80;84.90;;;;;;5077333;28;19915;-69
2022/07/19 05:24:31;;;;;;;;;;;24.80;84.70;;;;;;5077178;28;19909;-69
2022/07/19 05:26:56;;;;;;;;;;;24.80;84.80;;;;;;5077031;28;19909;-68
2022/07/19 05:29:22;;;;;;;;;;;24.80;84.50;;;;;;5076727;28;20351;-69
2022/07/19 05:31:47;;;;;;;;;;;24.80;84.70;;;;;;5058942;28;19912;-69
2022/07/19 05:34:13;;;;;;;;;;;24.80;84.30;;;;;;5076681;28;19995;-69
2022/07/19 05:36:38;;;;;;;;;;;24.80;84.30;;;;;;5058930;28;19914;-68
2022/07/19 05:39:04;;;;;;;;;;;24.80;84.30;;;;;;5076507;28;19909;-69
2022/07/19 05:41:29;;;;;;;;;;;24.80;84.40;;;;;;5058803;28;19909;-69
2022/07/19 05:43:55;;;;;;;;;;;24.80;84.40;;;;;;5076650;28;19909;-69
2022/07/19 05:46:20;;;;;;;;;;;24.80;84.30;;;;;;5058914;28;20366;-69
2022/07/19 05:48:46;;;;;;;;;;;24.80;84.30;;;;;;5076493;28;20355;-69
2022/07/19 05:51:11;;;;;;;;;;;24.80;84.40;;;;;;5076530;28;20077;-69
2022/07/19 05:53:37;;;;;;;;;;;24.80;84.30;;;;;;5076289;28;19912;-69
2022/07/19 05:56:03;;;;;;;;;;;24.80;84.40;;;;;;5058616;28;20351;-69
2022/07/19 05:58:28;;;;;;;;;;;24.80;84.50;;;;;;5076566;28;20268;-69
2022/07/19 06:03:38;;;;;;;;;;;24.80;84.40;;;;;;5076251;28;19964;-68
2022/07/19 06:06:04;;;;;;;;;;;24.80;84.60;;;;;;5076474;28;19909;-69
2022/07/19 06:08:29;;;;;;;;;;;24.80;84.60;;;;;;5076500;28;19927;-69
2022/07/19 06:10:55;;;;;;;;;;;24.80;84.40;;;;;;5076117;28;19958;-69
2022/07/19 06:13:20;;;;;;;;;;;24.80;84.50;;;;;;5076258;28;19912;-69
2022/07/19 06:15:46;;;;;;;;;;;24.80;84.40;;;;;;5075994;28;19909;-69
2022/07/19 06:18:11;;;;;;;;;;;24.80;84.50;;;;;;5076151;28;19919;-69
2022/07/19 06:20:37;;;;;;;;;;;24.80;84.70;;;;;;5075677;28;19908;-70
2022/07/19 06:23:02;;;;;;;;;;;24.80;84.70;;;;;;5076000;28;19958;-70
2022/07/19 06:25:28;;;;;;;;;;;24.80;84.60;;;;;;5075893;28;20414;-70
2022/07/19 06:27:53;;;;;;;;;;;24.80;84.60;;;;;;5075566;28;19908;-69
2022/07/19 06:30:19;;;;;;;;;;;24.80;84.60;;;;;;5057935;28;19908;-68
2022/07/19 06:32:44;;;;;;;;;;;24.80;84.50;;;;;;5075533;28;19918;-68
2022/07/19 06:35:10;;;;;;;;;;;24.80;84.50;;;;;;5057870;28;19965;-68
2022/07/19 06:37:35;;;;;;;;;;;24.80;84.80;;;;;;5075518;28;19916;-69
2022/07/19 06:40:01;;;;;;;;;;;24.80;84.60;;;;;;5075463;28;19912;-68
2022/07/19 06:42:26;;;;;;;;;;;24.80;84.80;;;;;;5075384;28;19909;-68
2022/07/19 06:44:51;;;;;;;;;;;24.80;84.70;;;;;;5075336;28;19912;-69
2022/07/19 06:47:17;;;;;;;;;;;24.80;84.70;;;;;;5075911;28;20049;-69
2022/07/19 06:49:42;;;;;;;;;;;24.80;84.70;;;;;;5057719;28;19916;-69
2022/07/19 06:52:08;;;;;;;;;;;24.80;84.80;;;;;;5057336;28;20032;-71
2022/07/19 06:54:33;;;;;;;;;;;24.80;84.80;;;;;;5057610;28;19978;-70
2022/07/19 06:56:59;;;;;;;;;;;24.90;85.00;;;;;;5075408;28;19987;-70
2022/07/19 06:59:24;;;;;;;;;;;24.80;84.90;;;;;;5075099;28;19921;-69
2022/07/19 07:01:50;;;;;;;;;;;24.90;85.40;;;;;;5075074;28;20358;-69
2022/07/19 07:04:16;;;;;;;;;;;24.90;84.90;;;;;;5075349;28;19940;-69
2022/07/19 07:06:41;;;;;;;;;;;24.80;84.90;;;;;;5057356;28;19908;-69
2022/07/19 07:09:07;;;;;;;;;;;24.80;85.10;;;;;;5075200;28;19908;-69
2022/07/19 07:11:32;;;;;;;;;;;24.80;85.00;;;;;;5075162;28;19966;-70
2022/07/19 07:13:58;;;;;;;;;;;24.90;85.20;;;;;;5057327;28;19954;-70
2022/07/19 07:16:23;;;;;;;;;;;24.90;85.00;;;;;;5074854;28;19948;-70
2022/07/19 07:18:49;;;;;;;;;;;24.90;85.10;;;;;;5074883;28;19970;-70
2022/07/19 07:21:14;;;;;;;;;;;24.90;85.00;;;;;;5074978;28;20316;-69
2022/07/19 07:23:40;;;;;;;;;;;24.90;85.30;;;;;;5074191;28;19912;-69
2022/07/19 07:26:05;;;;;;;;;;;24.80;84.90;;;;;;5074954;28;19908;-70
2022/07/19 07:28:31;;;;;;;;;;;24.90;85.20;;;;;;5074560;28;20343;-69
2022/07/19 07:30:57;;;;;;;;;;;24.90;85.10;;;;;;5074919;28;19908;-69
2022/07/19 07:33:22;;;;;;;;;;;24.80;85.20;;;;;;5056958;28;19916;-69
2022/07/19 07:35:47;;;;;;;;;;;24.80;85.30;;;;;;5056538;28;19974;-69
2022/07/19 07:38:13;;;;;;;;;;;24.90;85.40;;;;;;5074186;28;19916;-69
2022/07/19 07:40:39;;;;;;;;;;;24.90;85.40;;;;;;5074343;28;19915;-69
2022/07/19 07:43:05;;;;;;;;;;;24.90;85.50;;;;;;5073884;28;20381;-69
2022/07/19 07:45:31;;;;;;;;;;;24.90;85.20;;;;;;5056082;28;19908;-69
2022/07/19 07:47:57;;;;;;;;;;;24.90;85.30;;;;;;5056148;28;20255;-69
2022/07/19 07:50:22;;;;;;;;;;;24.90;85.50;;;;;;5073983;28;19909;-69
2022/07/19 07:52:48;;;;;;;;;;;24.90;85.60;;;;;;5074244;28;19919;-70
2022/07/19 07:55:13;;;;;;;;;;;24.90;85.60;;;;;;5073945;28;20016;-69
2022/07/19 07:57:39;;;;;;;;;;;24.90;85.70;;;;;;5073566;28;19966;-70
2022/07/19 08:00:06;;;;;;;;;;;24.90;85.50;;;;;;5074084;28;19928;-70
2022/07/19 08:02:37;;;;;;;;;;;24.90;85.60;;;;;;5056142;28;19909;-70
2022/07/19 08:05:03;;;;;;;;;;;24.90;85.60;;;;;;5073851;28;19912;-70
2022/07/19 08:07:28;;;;;;;;;;;24.90;85.60;;;;;;5056065;28;19954;-70
2022/07/19 08:09:54;;;;;;;;;;;24.90;85.60;;;;;;5073801;28;19912;-70
2022/07/19 08:12:19;;;;;;;;;;;24.90;85.60;;;;;;5073733;28;20394;-69
2022/07/19 08:14:44;;;;;;;;;;;24.90;85.80;;;;;;5073795;28;20015;-69
2022/07/19 08:17:10;;;;;;;;;;;24.90;85.80;;;;;;5073627;28;19915;-68
2022/07/19 08:19:35;;;;;;;;;;;24.90;85.70;;;;;;5055718;28;20343;-70
2022/07/19 08:22:01;;;;;;;;;;;24.90;85.80;;;;;;5073566;28;19909;-70
2022/07/19 08:24:26;;;;;;;;;;;24.90;85.70;;;;;;5073910;28;19967;-70
2022/07/19 08:26:52;;;;;;;;;;;24.90;85.70;;;;;;5073974;28;20366;-70
2022/07/19 08:29:18;;;;;;;;;;;24.90;85.80;;;;;;5056137;28;19912;-70
2022/07/19 08:31:43;;;;;;;;;;;24.90;85.80;;;;;;5073681;28;19959;-69
2022/07/19 08:34:09;;;;;;;;;;;24.90;85.70;;;;;;5055903;28;19913;-70
2022/07/19 08:36:34;;;;;;;;;;;24.90;85.80;;;;;;5073788;28;20240;-70
2022/07/19 08:38:59;;;;;;;;;;;24.90;85.80;;;;;;5073644;28;19908;-70
2022/07/19 08:41:25;;;;;;;;;;;24.90;85.80;;;;;;5073746;28;20003;-70
2022/07/19 08:43:51;;;;;;;;;;;24.90;85.80;;;;;;5073668;28;19916;-70
2022/07/19 08:46:18;;;;;;;;;;;24.90;85.80;;;;;;5055464;28;19916;-70
2022/07/19 08:48:45;;;;;;;;;;;24.90;85.80;;;;;;5073333;28;19916;-70
2022/07/19 08:51:11;;;;;;;;;;;24.90;85.80;;;;;;5073560;28;19919;-71
2022/07/19 08:53:40;;;;;;;;;;;24.90;85.80;;;;;;5073704;28;19912;-70
2022/07/19 08:57:56;;;;;;;;;;;24.90;85.80;;;;;;5073664;28;20270;-70
2022/07/19 08:58:51;;;;;;;;;;;24.90;85.80;;;;;;5073558;28;19943;-71
2022/07/19 09:01:17;;;;;;;;;;;24.90;85.90;;;;;;5073229;28;20351;-70
2022/07/19 09:04:01;;;;;;;;;;;24.90;85.90;;;;;;5073458;28;19912;-70
2022/07/19 09:06:36;;;;;;;;;;;24.80;85.80;;;;;;5073524;28;19955;-70
2022/07/19 09:09:03;;;;;;;;;;;24.90;85.90;;;;;;5089045;28;19975;-70
2022/07/19 09:11:33;;;;;;;;;;;24.90;86.00;;;;;;5073355;28;19966;-71
2022/07/19 09:14:03;;;;;;;;;;;24.90;85.90;;;;;;5055381;28;19924;-70
2022/07/19 09:16:47;;;;;;;;;;;24.90;85.90;;;;;;5073141;28;19908;-70
2022/07/19 09:19:12;;;;;;;;;;;24.90;85.90;;;;;;5055381;28;19912;-69
2022/07/19 09:21:59;;;;;;;;;;;24.90;85.80;;;;;;5073286;28;19915;-70
2022/07/19 09:24:25;;;;;;;;;;;24.90;86.00;;;;;;5072759;28;19912;-70
2022/07/19 09:26:55;;;;;;;;;;;24.90;85.90;;;;;;5073558;28;19915;-70
2022/07/19 09:29:20;;;;;;;;;;;24.90;85.90;;;;;;5055035;28;19912;-70
2022/07/19 09:31:58;;;;;;;;;;;24.90;85.80;;;;;;5072868;28;19920;-70
2022/07/19 09:34:31;;;;;;;;;;;24.90;86.00;;;;;;5073079;28;19951;-70
2022/07/19 09:37:17;;;;;;;;;;;24.90;86.50;;;;;;5072972;28;19908;-70
2022/07/19 09:39:47;;;;;;;;;;;24.90;85.90;;;;;;5054909;28;19912;-69
2022/07/19 09:42:14;;;;;;;;;;;24.90;86.00;;;;;;5073025;28;19913;-69
2022/07/19 09:44:39;;;;;;;;;;;24.90;85.90;;;;;;5072941;28;19958;-70
2022/07/19 09:47:05;;;;;;;;;;;24.90;85.80;;;;;;5058166;28;19948;-71
2022/07/19 09:49:30;;;;;;;;;;;24.90;85.80;;;;;;5058666;28;20003;-71
2022/07/19 09:51:56;;;;;;;;;;;24.90;85.70;;;;;;5058631;28;19912;-70
2022/07/19 09:54:26;;;;;;;;;;;24.90;85.60;;;;;;5076684;28;19916;-70
2022/07/19 09:56:53;;;;;;;;;;;24.90;85.80;;;;;;5076161;28;20103;-70
2022/07/19 09:59:19;;;;;;;;;;;24.90;85.70;;;;;;5076481;28;19921;-70
2022/07/19 10:01:48;;;;;;;;;;;24.90;85.60;;;;;;5076187;28;19909;-69
2022/07/19 10:04:18;;;;;;;;;;;24.90;85.60;;;;;;5058072;28;21548;-70
2022/07/19 10:06:44;;;;;;;;;;;24.90;85.60;;;;;;5076212;28;19962;-70
2022/07/19 10:09:10;;;;;;;;;;;24.90;85.70;;;;;;5058389;28;19916;-70
2022/07/19 10:11:36;;;;;;;;;;;24.90;85.70;;;;;;5076110;28;19958;-70
2022/07/19 10:14:02;;;;;;;;;;;24.90;85.80;;;;;;5058296;28;19920;-70
2022/07/19 10:16:30;;;;;;;;;;;24.90;85.90;;;;;;5076061;28;19908;-70
2022/07/19 10:19:10;;;;;;;;;;;24.90;85.80;;;;;;5058069;28;19909;-70
2022/07/19 10:21:36;;;;;;;;;;;24.90;85.80;;;;;;5075639;28;19978;-70
2022/07/19 10:24:02;;;;;;;;;;;24.90;85.70;;;;;;5075937;28;19908;-70
2022/07/19 10:26:38;;;;;;;;;;;24.90;85.80;;;;;;5076045;28;19908;-69
2022/07/19 10:29:10;;;;;;;;;;;24.90;85.80;;;;;;5057949;28;20351;-70
2022/07/19 10:31:36;;;;;;;;;;;24.90;85.90;;;;;;5091279;28;20370;-69
2022/07/19 10:34:06;;;;;;;;;;;24.90;85.90;;;;;;5075961;28;19917;-70
2022/07/19 10:36:39;;;;;;;;;;;24.90;85.80;;;;;;5075710;28;20089;-69
2022/07/19 10:39:24;;;;;;;;;;;24.90;85.90;;;;;;5075326;28;19908;-70
2022/07/19 10:42:19;;;;;;;;;;;24.90;85.90;;;;;;5075224;28;20247;-70
2022/07/19 10:44:56;;;;;;;;;;;24.90;85.90;;;;;;5074172;28;19909;-70
2022/07/19 10:47:31;;;;;;;;;;;24.90;86.00;;;;;;5057762;28;19909;-70
2022/07/19 10:50:00;;;;;;;;;;;24.90;86.00;;;;;;5075684;28;19912;-70
2022/07/19 10:52:28;;;;;;;;;;;24.90;86.00;;;;;;5075649;28;19912;-71
2022/07/19 10:55:12;;;;;;;;;;;24.90;86.00;;;;;;5075454;28;19912;-70
2022/07/19 10:57:38;;;;;;;;;;;24.90;86.00;;;;;;5073984;28;19909;-71
2022/07/19 11:00:17;;;;;;;;;;;24.90;86.00;;;;;;5075683;28;19927;-70
2022/07/19 11:02:42;;;;;;;;;;;24.90;86.00;;;;;;5075529;28;19924;-70
2022/07/19 11:05:19;;;;;;;;;;;25.00;86.10;;;;;;5075143;28;19908;-70
2022/07/19 11:07:49;;;;;;;;;;;24.90;86.00;;;;;;5075619;28;20393;-70
2022/07/19 11:10:21;;;;;;;;;;;24.90;86.00;;;;;;5075121;28;19908;-69
2022/07/19 11:12:47;;;;;;;;;;;24.90;85.90;;;;;;5075356;28;19970;-69
2022/07/19 11:15:12;;;;;;;;;;;24.90;86.00;;;;;;5075191;28;20311;-71
2022/07/19 11:17:38;;;;;;;;;;;24.90;86.00;;;;;;5075126;28;19915;-70
2022/07/19 11:20:04;;;;;;;;;;;24.90;86.00;;;;;;5074592;28;19924;-70
2022/07/19 11:22:34;;;;;;;;;;;24.90;86.00;;;;;;5074836;28;19912;-70
2022/07/19 11:25:00;;;;;;;;;;;24.90;86.00;;;;;;5074664;28;19908;-71
2022/07/19 11:27:25;;;;;;;;;;;25.00;86.10;;;;;;5074639;28;19916;-71
2022/07/19 11:29:58;;;;;;;;;;;25.00;86.10;;;;;;5075161;28;20310;-70
2022/07/19 11:32:24;;;;;;;;;;;24.90;86.00;;;;;;5074455;28;19920;-71
2022/07/19 11:34:53;;;;;;;;;;;24.90;86.10;;;;;;5074624;28;19917;-70
2022/07/19 11:37:26;;;;;;;;;;;24.90;86.00;;;;;;5074725;28;19913;-70
2022/07/19 11:39:51;;;;;;;;;;;24.90;86.00;;;;;;5074639;28;20275;-70
2022/07/19 11:42:29;;;;;;;;;;;24.90;86.10;;;;;;5056451;28;19908;-69
2022/07/19 11:44:55;;;;;;;;;;;25.00;86.10;;;;;;5074334;28;19977;-70
2022/07/19 11:47:21;;;;;;;;;;;24.90;86.10;;;;;;5074462;28;20335;-71
2022/07/19 11:49:46;;;;;;;;;;;25.00;86.10;;;;;;5056515;28;19908;-70
2022/07/19 11:52:12;;;;;;;;;;;25.00;86.20;;;;;;5074572;28;19916;-70
2022/07/19 11:54:38;;;;;;;;;;;24.90;86.10;;;;;;5074136;28;19936;-70
2022/07/19 11:57:04;;;;;;;;;;;25.00;86.10;;;;;;5074301;28;19998;-70
2022/07/19 11:59:29;;;;;;;;;;;24.90;86.00;;;;;;5073876;28;19952;-70
2022/07/19 12:01:57;;;;;;;;;;;25.00;86.20;;;;;;5056539;28;19913;-70
2022/07/19 12:04:23;;;;;;;;;;;25.00;86.20;;;;;;5073934;28;20378;-70
2022/07/19 12:06:50;;;;;;;;;;;25.00;86.10;;;;;;5074213;28;19909;-71
2022/07/19 12:09:20;;;;;;;;;;;25.00;86.10;;;;;;5073730;28;19999;-69
2022/07/19 12:11:46;;;;;;;;;;;25.00;86.00;;;;;;5074162;28;19935;-70
2022/07/19 12:14:28;;;;;;;;;;;25.00;86.10;;;;;;5074066;28;20459;-71
2022/07/19 12:17:12;;;;;;;;;;;25.00;86.10;;;;;;5073471;28;19912;-70
2022/07/19 12:19:39;;;;;;;;;;;25.00;86.10;;;;;;5073877;28;20322;-70
2022/07/19 12:22:06;;;;;;;;;;;25.00;86.10;;;;;;5073931;28;19916;-71
2022/07/19 12:24:32;;;;;;;;;;;25.00;86.10;;;;;;5055716;28;20321;-71
2022/07/19 12:26:57;;;;;;;;;;;25.00;86.10;;;;;;5055723;28;19908;-70
2022/07/19 12:29:23;;;;;;;;;;;25.00;86.10;;;;;;5055663;28;20347;-70
2022/07/19 12:31:49;;;;;;;;;;;25.00;86.10;;;;;;5074130;28;19919;-70
2022/07/19 12:34:15;;;;;;;;;;;25.00;86.10;;;;;;5073995;28;19966;-70
2022/07/19 12:36:41;;;;;;;;;;;25.00;86.10;;;;;;5073697;28;19909;-71
2022/07/19 12:39:36;;;;;;;;;;;25.00;86.10;;;;;;5073604;28;19916;-71
2022/07/19 12:42:03;;;;;;;;;;;25.00;86.20;;;;;;5064654;28;20315;-70
2022/07/19 12:44:29;;;;;;;;;;;25.00;86.10;;;;;;5073523;28;20355;-71
2022/07/19 12:46:55;;;;;;;;;;;25.00;86.20;;;;;;5073755;28;19915;-70
2022/07/19 12:49:20;;;;;;;;;;;25.00;86.10;;;;;;5055704;28;19916;-70
2022/07/19 12:51:46;;;;;;;;;;;25.00;86.10;;;;;;5073656;28;20288;-70
2022/07/19 12:54:12;;;;;;;;;;;25.00;86.10;;;;;;5055653;28;20267;-70
2022/07/19 12:56:38;;;;;;;;;;;25.00;86.10;;;;;;5073234;28;19908;-70
2022/07/19 13:01:48;;;;;;;;;;;25.00;86.20;;;;;;5073171;28;19930;-70
2022/07/19 13:04:14;;;;;;;;;;;25.00;86.20;;;;;;5073550;28;19909;-70
2022/07/19 13:06:39;;;;;;;;;;;25.00;86.10;;;;;;5073278;28;19962;-70
2022/07/19 13:09:04;;;;;;;;;;;25.00;86.20;;;;;;5073317;28;19909;-70
2022/07/19 13:11:30;;;;;;;;;;;25.00;86.10;;;;;;5073683;28;19912;-70
2022/07/19 13:13:55;;;;;;;;;;;25.00;86.10;;;;;;5055530;28;19959;-70
2022/07/19 13:16:22;;;;;;;;;;;25.00;86.10;;;;;;5073364;28;20270;-70
2022/07/19 13:18:49;;;;;;;;;;;25.00;86.10;;;;;;5055279;28;19954;-69
2022/07/19 13:21:15;;;;;;;;;;;25.00;86.20;;;;;;5057040;28;19916;-70
2022/07/19 13:23:41;;;;;;;;;;;25.00;86.20;;;;;;5077296;28;19908;-70
2022/07/19 13:26:06;;;;;;;;;;;25.00;86.10;;;;;;5076711;28;19908;-70
2022/07/19 13:28:32;;;;;;;;;;;25.00;86.20;;;;;;5076569;28;19913;-70
2022/07/19 13:30:57;;;;;;;;;;;25.00;86.20;;;;;;5059247;28;19991;-69
2022/07/19 13:33:22;;;;;;;;;;;25.00;86.20;;;;;;5077077;28;20275;-69
2022/07/19 13:35:48;;;;;;;;;;;25.00;86.10;;;;;;5076725;28;19970;-70
2022/07/19 13:38:13;;;;;;;;;;;25.00;86.10;;;;;;5076667;28;19908;-70
2022/07/19 13:40:39;;;;;;;;;;;25.00;86.20;;;;;;5076319;28;19912;-70
2022/07/19 13:43:05;;;;;;;;;;;25.00;86.10;;;;;;5077235;28;19908;-70
2022/07/19 13:45:30;;;;;;;;;;;25.00;86.20;;;;;;5076934;28;20255;-70
2022/07/19 13:47:56;;;;;;;;;;;25.00;86.20;;;;;;5058935;28;19916;-70
2022/07/19 13:50:21;;;;;;;;;;;25.00;86.20;;;;;;5076775;28;20076;-69
2022/07/19 13:52:47;;;;;;;;;;;25.00;86.20;;;;;;5058660;28;19917;-69
2022/07/19 13:55:12;;;;;;;;;;;25.00;86.20;;;;;;5076368;28;19916;-70
2022/07/19 13:57:38;;;;;;;;;;;25.00;86.20;;;;;;5076564;28;20351;-70
2022/07/19 14:00:06;;;;;;;;;;;25.00;86.20;;;;;;5057760;28;19928;-70
2022/07/19 14:02:32;;;;;;;;;;;25.00;86.20;;;;;;5076537;28;19916;-70
2022/07/19 14:04:57;;;;;;;;;;;25.00;86.20;;;;;;5076471;28;19908;-69
2022/07/19 14:07:23;;;;;;;;;;;25.00;86.30;;;;;;5076643;28;19915;-69
2022/07/19 14:09:48;;;;;;;;;;;25.00;86.20;;;;;;5058366;28;20402;-69
2022/07/19 14:12:14;;;;;;;;;;;25.00;86.30;;;;;;5076184;28;19956;-69
2022/07/19 14:14:39;;;;;;;;;;;25.00;86.30;;;;;;5076043;28;19998;-70
2022/07/19 14:17:05;;;;;;;;;;;25.00;86.30;;;;;;5075831;28;19908;-70
2022/07/19 14:19:30;;;;;;;;;;;25.00;86.30;;;;;;5076548;28;19912;-69